createdAt,value
2022-10-28T00:01:31.561Z,100.00
2022-10-28T00:05:34.870Z,100.00
2022-10-28T00:09:37.009Z,100.00
2022-10-28T00:13:40.314Z,100.00
2022-10-28T00:17:42.367Z,100.00
2022-10-28T00:21:45.124Z,100.00
2022-10-28T00:25:47.149Z,100.00
2022-10-28T00:29:49.198Z,100.00
2022-10-28T00:33:51.695Z,100.00
2022-10-28T00:37:53.933Z,100.00
2022-10-28T00:42:03.667Z,100.00
2022-10-28T00:46:16.006Z,100.00
2022-10-28T00:50:37.669Z,100.00
2022-10-28T00:54:40.250Z,100.00
2022-10-28T00:58:43.557Z,100.00
2022-10-28T01:02:49.283Z,100.00
2022-10-28T01:06:52.491Z,100.00
2022-10-28T01:11:13.116Z,100.00
2022-10-28T01:15:24.228Z,100.00
2022-10-28T01:19:44.486Z,100.00
2022-10-28T01:24:08.257Z,100.00
2022-10-28T01:28:47.535Z,100.00
2022-10-28T01:33:08.721Z,100.00
2022-10-28T01:37:16.485Z,100.00
2022-10-28T01:41:34.747Z,100.00
2022-10-28T01:45:55.140Z,100.00
2022-10-28T01:50:10.433Z,100.00
2022-10-28T01:54:17.558Z,100.00
2022-10-28T01:58:23.808Z,100.00
2022-10-28T02:02:26.310Z,100.00
2022-10-28T02:06:32.054Z,100.00
2022-10-28T02:10:41.414Z,100.00
2022-10-28T02:19:34.588Z,100.00
2022-10-28T02:23:44.729Z,100.00
2022-10-28T02:27:54.601Z,100.00
2022-10-28T02:32:03.428Z,100.00
2022-10-28T02:36:11.206Z,100.00
2022-10-28T02:40:19.396Z,100.00
2022-10-28T02:44:29.136Z,100.00
2022-10-28T02:48:44.055Z,100.00
2022-10-28T02:52:51.540Z,100.00
2022-10-28T02:57:19.932Z,100.00
2022-10-28T03:01:22.179Z,100.00
2022-10-28T03:05:24.231Z,100.00
2022-10-28T03:09:26.223Z,100.00
2022-10-28T03:13:28.221Z,100.00
2022-10-28T03:17:30.304Z,100.00
2022-10-28T03:21:32.390Z,100.00
2022-10-28T03:25:34.426Z,100.00
2022-10-28T03:29:36.477Z,100.00
2022-10-28T03:33:38.546Z,100.00
2022-10-28T03:37:44.404Z,99.37
2022-10-28T03:41:46.439Z,98.76
2022-10-28T03:45:48.926Z,100.00
2022-10-28T03:49:50.936Z,98.66
2022-10-28T03:53:52.941Z,97.49
2022-10-28T03:57:55.428Z,96.81
2022-10-28T04:01:57.617Z,95.75
2022-10-28T04:05:59.749Z,95.13
2022-10-28T04:10:01.813Z,95.17
2022-10-28T04:14:03.831Z,95.83
2022-10-28T04:18:06.272Z,96.22
2022-10-28T04:22:09.667Z,97.62
2022-10-28T04:26:11.744Z,98.60
2022-10-28T04:30:14.366Z,98.93
2022-10-28T04:34:16.390Z,99.58
2022-10-28T04:38:18.572Z,100.00
2022-10-28T04:42:20.596Z,100.00
2022-10-28T04:46:22.791Z,100.00
2022-10-28T04:50:24.928Z,100.00
2022-10-28T04:54:27.780Z,100.00
2022-10-28T04:58:29.825Z,100.00
2022-10-28T05:02:31.960Z,100.00
2022-10-28T05:06:33.976Z,100.00
2022-10-28T05:10:35.961Z,100.00
2022-10-28T05:14:37.960Z,100.00
2022-10-28T05:18:40.001Z,100.00
2022-10-28T05:22:50.252Z,100.00
2022-10-28T05:26:52.385Z,100.00
2022-10-28T05:30:54.378Z,100.00
2022-10-28T05:34:56.369Z,100.00
2022-10-28T05:38:58.468Z,100.00
2022-10-28T05:43:01.535Z,99.34
2022-10-28T05:47:03.572Z,98.41
2022-10-28T05:51:05.734Z,98.42
2022-10-28T05:55:08.063Z,99.09
2022-10-28T05:59:10.155Z,99.62
2022-10-28T06:03:12.604Z,99.69
2022-10-28T06:07:14.656Z,99.93
2022-10-28T06:11:15.172Z,100.00
2022-10-28T06:15:17.174Z,100.00
2022-10-28T06:19:19.258Z,100.00
2022-10-28T06:23:22.573Z,99.44
2022-10-28T06:27:24.598Z,99.12
2022-10-28T06:31:26.594Z,98.42
2022-10-28T06:35:28.580Z,97.69
2022-10-28T06:39:30.594Z,97.36
2022-10-28T06:43:32.622Z,96.30
2022-10-28T06:47:40.581Z,95.47
2022-10-28T06:51:43.787Z,94.84
2022-10-28T06:55:52.806Z,94.67
2022-10-28T06:59:55.771Z,94.39
2022-10-28T07:03:57.799Z,94.11
2022-10-28T07:07:59.790Z,93.53
2022-10-28T07:12:04.810Z,92.98
2022-10-28T07:16:07.557Z,92.86
2022-10-28T07:20:10.614Z,92.61
2022-10-28T07:24:12.621Z,92.41
2022-10-28T07:28:14.621Z,92.11
2022-10-28T07:32:16.635Z,91.58
2022-10-28T07:36:18.665Z,91.64
2022-10-28T07:40:21.795Z,89.56
2022-10-28T07:44:23.825Z,87.10
2022-10-28T07:48:25.915Z,85.46
2022-10-28T07:52:28.025Z,84.20
2022-10-28T07:56:30.142Z,82.65
2022-10-28T08:00:32.155Z,82.90
2022-10-28T08:04:34.218Z,81.61
2022-10-28T08:08:36.852Z,80.29
2022-10-28T08:12:38.904Z,80.58
2022-10-28T08:16:40.982Z,81.57
2022-10-28T08:20:43.214Z,81.33
2022-10-28T08:24:45.207Z,80.77
2022-10-28T08:28:47.191Z,79.70
2022-10-28T08:32:49.226Z,78.63
2022-10-28T08:36:51.233Z,78.34
2022-10-28T08:41:14.664Z,76.90
2022-10-28T08:45:22.829Z,75.54
2022-10-28T08:49:24.973Z,74.49
2022-10-28T08:53:33.486Z,72.09
2022-10-28T08:57:41.847Z,70.07
2022-10-28T09:01:50.963Z,68.88
2022-10-28T09:06:05.774Z,67.47
2022-10-28T09:10:08.153Z,66.32
2022-10-28T09:14:16.073Z,67.72
2022-10-28T09:18:40.923Z,64.68
2022-10-28T09:22:55.001Z,66.09
2022-10-28T09:27:10.378Z,66.24
2022-10-28T09:31:35.688Z,65.10
2022-10-28T09:35:41.897Z,64.77
2022-10-28T09:39:54.635Z,64.37
2022-10-28T09:43:59.925Z,63.25
2022-10-28T09:48:23.132Z,62.98
2022-10-28T09:52:30.956Z,63.44
2022-10-28T09:56:32.954Z,63.31
2022-10-28T10:00:35.012Z,62.21
2022-10-28T10:04:37.385Z,62.47
2022-10-28T10:08:41.418Z,61.88
2022-10-28T10:12:44.866Z,60.58
2022-10-28T10:17:00.472Z,60.96
2022-10-28T10:21:03.762Z,60.65
2022-10-28T10:25:17.867Z,60.87
2022-10-28T10:29:21.607Z,60.31
2022-10-28T10:33:28.327Z,59.58
2022-10-28T10:37:35.540Z,59.40
2022-10-28T10:41:43.574Z,59.35
2022-10-28T10:46:00.368Z,58.76
2022-10-28T10:50:24.394Z,58.94
2022-10-28T10:54:29.826Z,58.36
2022-10-28T10:58:47.579Z,57.75
2022-10-28T11:02:53.535Z,58.36
2022-10-28T11:06:58.319Z,57.77
2022-10-28T11:11:06.007Z,57.18
2022-10-28T11:15:17.304Z,56.74
2022-10-28T11:19:28.062Z,56.55
2022-10-28T11:23:52.351Z,56.04
2022-10-28T11:28:08.664Z,55.60
2022-10-28T11:32:17.640Z,54.24
2022-10-28T11:36:37.289Z,54.12
2022-10-28T11:40:56.667Z,53.38
2022-10-28T11:45:28.057Z,52.73
2022-10-28T11:50:05.587Z,51.65
2022-10-28T11:54:07.550Z,52.08
2022-10-28T11:58:25.678Z,51.45
2022-10-28T12:03:20.252Z,51.16
2022-10-28T12:07:50.162Z,51.70
2022-10-28T12:12:06.227Z,51.29
2022-10-28T12:16:47.386Z,51.28
2022-10-28T12:21:11.424Z,51.18
2022-10-28T12:25:19.055Z,50.30
2022-10-28T12:29:26.315Z,50.28
2022-10-28T12:33:39.293Z,50.82
2022-10-28T12:37:52.275Z,50.63
2022-10-28T12:42:12.509Z,50.86
2022-10-28T12:46:44.871Z,51.62
2022-10-28T12:51:02.721Z,52.67
2022-10-28T12:59:18.051Z,52.02
2022-10-28T13:03:20.029Z,51.71
2022-10-28T13:07:25.074Z,51.88
2022-10-28T13:12:04.703Z,52.68
2022-10-28T13:16:32.294Z,53.93
2022-10-28T13:20:48.299Z,54.30
2022-10-28T13:25:28.156Z,54.60
2022-10-28T13:29:34.735Z,55.08
2022-10-28T13:33:38.872Z,55.41
2022-10-28T13:37:45.569Z,55.37
2022-10-28T13:41:49.043Z,55.23
2022-10-28T13:45:55.851Z,54.99
2022-10-28T13:50:10.018Z,57.14
2022-10-28T13:54:26.027Z,58.25
2022-10-28T13:58:28.134Z,57.82
2022-10-28T14:02:39.821Z,56.88
2022-10-28T14:06:42.117Z,57.35
2022-10-28T14:10:59.199Z,58.16
2022-10-28T14:15:30.160Z,58.85
2022-10-28T14:19:32.890Z,59.16
2022-10-28T14:23:36.359Z,59.48
2022-10-28T14:27:43.530Z,59.62
2022-10-28T14:31:45.556Z,59.93
2022-10-28T14:35:50.399Z,60.24
2022-10-28T14:40:18.557Z,60.18
2022-10-28T14:44:51.201Z,60.86
2022-10-28T14:48:55.785Z,61.01
2022-10-28T14:53:00.899Z,60.92
2022-10-28T14:57:04.499Z,60.17
2022-10-28T15:01:18.324Z,59.80
2022-10-28T15:05:24.061Z,60.20
2022-10-28T15:09:31.350Z,60.43
2022-10-28T15:13:33.428Z,60.67
2022-10-28T15:17:42.689Z,60.88
2022-10-28T15:21:44.746Z,61.27
2022-10-28T15:26:04.237Z,61.69
2022-10-28T15:30:15.604Z,62.55
2022-10-28T15:34:21.143Z,63.24
2022-10-28T15:38:36.450Z,63.89
2022-10-28T15:43:03.257Z,64.67
2022-10-28T15:47:25.924Z,65.20
2022-10-28T15:51:28.307Z,65.46
2022-10-28T15:55:41.324Z,65.86
2022-10-28T16:00:28.885Z,66.67
2022-10-28T16:04:33.882Z,67.33
2022-10-28T16:08:35.982Z,68.36
2022-10-28T16:12:45.222Z,68.53
2022-10-28T16:16:47.279Z,68.82
2022-10-28T16:20:49.843Z,69.48
2022-10-28T16:24:53.652Z,69.60
2022-10-28T16:28:56.392Z,70.00
2022-10-28T16:32:58.450Z,70.24
2022-10-28T16:37:00.453Z,71.09
2022-10-28T16:41:03.621Z,71.65
2022-10-28T16:45:07.529Z,72.10
2022-10-28T16:49:09.561Z,72.30
2022-10-28T16:53:12.860Z,72.59
2022-10-28T16:57:15.795Z,72.81
2022-10-28T17:01:20.959Z,72.95
2022-10-28T17:05:24.066Z,73.27
2022-10-28T17:09:26.081Z,73.23
2022-10-28T17:13:28.075Z,73.71
2022-10-28T17:17:30.085Z,74.02
2022-10-28T17:21:32.081Z,74.54
2022-10-28T17:25:34.203Z,75.05
2022-10-28T17:29:36.444Z,75.21
2022-10-28T17:33:38.490Z,75.94
2022-10-28T17:37:40.588Z,76.18
2022-10-28T17:41:42.604Z,76.24
2022-10-28T17:45:44.617Z,75.28
2022-10-28T17:49:46.638Z,75.10
2022-10-28T17:53:55.843Z,75.44
2022-10-28T17:57:58.131Z,75.92
2022-10-28T18:02:00.420Z,76.42
2022-10-28T18:06:03.474Z,77.26
2022-10-28T18:10:05.990Z,76.48
2022-10-28T18:14:08.007Z,76.03
2022-10-28T18:18:10.044Z,75.11
2022-10-28T18:22:12.060Z,74.44
2022-10-28T18:26:16.210Z,73.54
2022-10-28T18:30:18.207Z,72.96
2022-10-28T18:34:21.205Z,72.65
2022-10-28T18:38:23.333Z,72.95
2022-10-28T18:42:25.334Z,73.10
2022-10-28T18:46:29.201Z,73.50
2022-10-28T18:50:31.870Z,74.08
2022-10-28T18:54:34.438Z,74.57
2022-10-28T18:58:36.792Z,74.66
2022-10-28T19:02:42.082Z,74.76
2022-10-28T19:06:47.888Z,75.29
2022-10-28T19:10:55.191Z,75.27
2022-10-28T19:14:57.177Z,75.21
2022-10-28T19:19:00.453Z,75.56
2022-10-28T19:23:02.592Z,75.54
2022-10-28T19:27:04.691Z,75.46
2022-10-28T19:31:09.217Z,76.02
2022-10-28T19:35:11.261Z,76.34
2022-10-28T19:39:13.297Z,76.30
2022-10-28T19:43:15.285Z,76.53
2022-10-28T19:47:17.288Z,76.98
2022-10-28T19:51:21.962Z,77.27
2022-10-28T19:55:23.970Z,77.86
2022-10-28T19:59:25.964Z,78.50
2022-10-28T20:03:32.958Z,78.66
2022-10-28T20:07:36.730Z,78.85
2022-10-28T20:11:39.265Z,79.06
2022-10-28T20:15:41.333Z,78.94
2022-10-28T20:19:43.363Z,78.65
2022-10-28T20:23:49.281Z,78.44
2022-10-28T20:27:51.311Z,78.26
2022-10-28T20:31:53.356Z,78.30
2022-10-28T20:35:55.938Z,79.24
2022-10-28T20:39:59.018Z,80.14
2022-10-28T20:44:04.140Z,79.86
2022-10-28T20:48:06.458Z,79.96
2022-10-28T20:52:08.529Z,81.31
2022-10-28T20:56:16.300Z,81.50
2022-10-28T21:00:18.545Z,81.64
2022-10-28T21:04:20.638Z,81.80
2022-10-28T21:08:22.750Z,81.77
2022-10-28T21:12:25.840Z,81.27
2022-10-28T21:16:29.135Z,81.33
2022-10-28T21:20:31.207Z,80.90
2022-10-28T21:24:33.203Z,80.61
2022-10-28T21:28:35.942Z,80.89
2022-10-28T21:32:38.043Z,80.78
2022-10-28T21:36:40.179Z,79.99
2022-10-28T21:40:42.160Z,80.24
2022-10-28T21:44:44.428Z,80.57
2022-10-28T21:48:46.896Z,80.47
2022-10-28T21:52:48.928Z,80.34
2022-10-28T21:56:50.996Z,79.85
2022-10-28T22:00:52.982Z,80.09
2022-10-28T22:04:55.143Z,80.70
2022-10-28T22:08:59.213Z,80.27
2022-10-28T22:13:01.209Z,80.65
2022-10-28T22:17:03.268Z,80.56
2022-10-28T22:21:07.697Z,81.52
2022-10-28T22:25:10.624Z,82.07
2022-10-28T22:29:12.875Z,82.42
2022-10-28T22:33:14.859Z,83.19
2022-10-28T22:37:16.853Z,83.81
2022-10-28T22:41:20.365Z,84.63
2022-10-28T22:45:22.356Z,85.62
2022-10-28T22:49:24.455Z,86.60
2022-10-28T22:53:27.235Z,87.31
2022-10-28T22:57:29.265Z,87.54
2022-10-28T23:01:31.421Z,87.90
2022-10-28T23:05:33.554Z,88.61
2022-10-28T23:09:35.577Z,89.44
2022-10-28T23:17:39.913Z,91.44
2022-10-28T23:21:41.927Z,91.45
2022-10-28T23:25:51.655Z,92.07
2022-10-28T23:29:53.666Z,93.41
2022-10-28T23:33:56.093Z,93.83
2022-10-28T23:37:59.120Z,94.56
2022-10-28T23:42:01.125Z,95.89
2022-10-28T23:46:03.731Z,96.04
2022-10-28T23:50:05.935Z,96.62
2022-10-28T23:54:08.023Z,97.38
2022-10-28T23:58:11.317Z,98.47
